Hlavní strana
METAR-TAF:

METAR-TAF

Letiště :

Pasto, Kolumbie

zeměpisná šířka: 01-25N, zeměpisná délka: 077-16W, výška: 1826 m

Aktuální stav počasí

Zpráva byla vytvořena před 13 hodinami a 11 minutami, v 19:00 UTC
Severovýchodní vítr 9 kt
Teplota 23°C
Vlhkost vzduchu 50%
Tlak 1021 hPa
Viditelnost 10 km a více
Oblačno až skoro zataženo ve výšce 2800 ft

METAR: SKPS 271900Z 05009KT 9999 BKN028 23/12 A3014

Čas: 03:11 (08:11 UTC)


TAF: chybějící

Stav a předpovědi počasí z více než 4 000 letišť (zprávy METAR a TAF).

Červené a žluté tečky na mapě představují dostupné meteorologické stanice.

Když kurzor umístíte na tečku, zobrazí se název stanice.

Pak kliknutím zobrazíte stav a předpověď počasí.

Chcete-li změnit mapu, kliknutím na zelené tlačítko se znaménkem +mapu přiblížíte, kliknutím na zelené tlačítko se znaménkem – mapu oddálíte a kliknutím na zelené šipky přejdete na sousední mapy.


METAR-TAF: